Graceville, Florida
Current Conditions -  °F | °C
As of 9:53 PM on Saturday 25 Oct 2014 (Local Time) from KMAI Reporting Station
Light Rain Light Rain  
Wind Chill: 57°   Ceiling: Unl
Heat Index: 57°   Visibility: 10mi
Dew Point: 54°   Wind: 0mph
Humidity: 89%   Direction: NA
Pressure: 30.05"   Gusts: NA
Location:  30.96°N, 85.52°W
Report Text: KMAI 260253Z AUTO 00000KT 10SM -RA CLR 14/12 A3005 RMK AO2 RAB19 SLP173 P0000 60000 T01390122 51010 $
Loading
Personal Weather Stations






























Interactive Weather Map
Tropical Storm Tracking
New forecast layout! Learn more

10-Day Weather Forecast

Advertisements
Track Severe Weather on mobile